Time;durP1;ratioP1;P1;durP2;ratioP2;P2;SDS_P1;SDS_P2;PMS_P1;PMS_P2;Temp;Humidity;BMP_temperature;BMP_pressure;BME280_temperature;BME280_humidity;BME280_pressure;Samples;Min_cycle;Max_cycle;Signal;HPM_P1;HPM_P2
2022/09/23 00:00:46;;;;;;;5.40;3.60;;;9.20;1.00;;;;;;5053226;28;20190;-44
2022/09/23 00:03:12;;;;;;;3.63;3.33;;;9.20;1.00;;;;;;5053245;28;20475;-44
2022/09/23 00:05:38;;;;;;;5.43;4.00;;;9.20;1.00;;;;;;5050575;28;20443;-44
2022/09/23 00:08:05;;;;;;;3.97;3.30;;;9.20;1.00;;;;;;5053210;28;20915;-44
2022/09/23 00:10:30;;;;;;;5.33;3.47;;;9.10;1.00;;;;;;5053312;28;20182;-44
2022/09/23 00:12:57;;;;;;;4.33;3.93;;;9.10;1.00;;;;;;5053062;28;20452;-44
2022/09/23 00:15:24;;;;;;;5.80;3.47;;;9.10;1.00;;;;;;5051565;28;20191;-44
2022/09/23 00:17:50;;;;;;;5.37;3.63;;;9.10;1.00;;;;;;5052197;28;20547;-44
2022/09/23 00:20:16;;;;;;;4.33;3.63;;;9.10;1.00;;;;;;5051623;28;20428;-45
2022/09/23 00:22:42;;;;;;;4.13;3.07;;;9.10;1.00;;;;;;5052209;28;20417;-44
2022/09/23 00:25:09;;;;;;;4.90;3.60;;;9.10;1.00;;;;;;5046286;28;20793;-44
2022/09/23 00:27:35;;;;;;;4.70;3.67;;;9.00;1.00;;;;;;5032918;28;20237;-44
2022/09/23 00:30:03;;;;;;;4.70;3.67;;;9.00;1.00;;;;;;5032902;28;20434;-44
2022/09/23 00:32:28;;;;;;;3.17;2.87;;;9.00;1.00;;;;;;5032805;28;21023;-45
2022/09/23 00:34:54;;;;;;;5.03;4.07;;;9.00;1.00;;;;;;5045674;28;20571;-44
2022/09/23 00:37:20;;;;;;;2.93;2.73;;;9.00;1.00;;;;;;5033039;28;20194;-44
2022/09/23 00:39:45;;;;;;;3.73;3.43;;;9.00;1.00;;;;;;5033167;28;20225;-44
2022/09/23 00:42:17;;;;;;;3.33;2.83;;;9.00;1.00;;;;;;5032641;28;20178;-44
2022/09/23 00:44:59;;;;;;;3.47;3.17;;;8.90;1.00;;;;;;5032491;28;20668;-44
2022/09/23 00:47:43;;;;;;;3.67;2.73;;;8.90;1.00;;;;;;5032619;28;20436;-45
2022/09/23 00:50:11;;;;;;;4.00;2.90;;;8.90;1.00;;;;;;5032506;28;20496;-45
2022/09/23 00:52:38;;;;;;;4.93;3.00;;;8.80;1.00;;;;;;5031997;28;20460;-44
2022/09/23 00:55:12;;;;;;;3.80;3.33;;;8.80;1.00;;;;;;5031065;28;20422;-44
2022/09/23 00:57:40;;;;;;;3.20;2.87;;;8.80;1.00;;;;;;5032484;28;20412;-44
2022/09/23 01:00:07;;;;;;;2.87;2.67;;;8.80;1.00;;;;;;5032211;28;20434;-44
2022/09/23 01:02:33;;;;;;;4.27;3.40;;;8.70;1.00;;;;;;5032259;28;20444;-44
2022/09/23 01:05:02;;;;;;;3.50;3.20;;;8.70;1.00;;;;;;5032222;28;20417;-44
2022/09/23 01:07:28;;;;;;;3.77;3.10;;;8.70;1.00;;;;;;5032383;28;20405;-47
2022/09/23 01:09:55;;;;;;;2.90;2.70;;;8.70;1.00;;;;;;5032049;28;20398;-47
2022/09/23 01:12:40;;;;;;;3.30;3.00;;;8.70;1.00;;;;;;5032597;28;20480;-47
2022/09/23 01:15:31;;;;;;;2.70;2.50;;;8.70;1.00;;;;;;5032466;28;20800;-47
2022/09/23 01:18:11;;;;;;;4.70;3.20;;;8.70;1.00;;;;;;5039366;28;20444;-44
2022/09/23 01:20:54;;;;;;;4.53;3.10;;;8.70;1.00;;;;;;5050836;28;20515;-44
2022/09/23 01:23:42;;;;;;;3.50;2.90;;;8.70;1.00;;;;;;5048115;28;20527;-45
2022/09/23 01:26:13;;;;;;;3.93;3.30;;;8.70;1.00;;;;;;5031950;28;20560;-45
2022/09/23 01:28:48;;;;;;;3.20;2.90;;;8.70;1.00;;;;;;5031329;28;20480;-44
2022/09/23 01:31:19;;;;;;;3.20;2.90;;;8.70;1.00;;;;;;5031588;28;20408;-44
2022/09/23 01:33:53;;;;;;;6.50;3.23;;;8.80;1.00;;;;;;5031991;28;20469;-44
2022/09/23 01:36:33;;;;;;;3.47;2.90;;;8.90;1.00;;;;;;5032545;28;20551;-44
2022/09/23 01:39:30;;;;;;;7.13;3.23;;;8.90;1.00;;;;;;5031244;28;20410;-44
2022/09/23 01:41:58;;;;;;;2.80;2.60;;;8.90;99.90;;;;;;5031559;28;20402;-45
2022/09/23 01:44:30;;;;;;;3.43;3.13;;;8.90;99.90;;;;;;5031959;28;20434;-44
2022/09/23 01:47:01;;;;;;;2.43;2.17;;;8.90;99.90;;;;;;5031163;28;20394;-45
2022/09/23 01:49:44;;;;;;;3.20;2.80;;;8.90;99.90;;;;;;5031221;28;20484;-44
2022/09/23 01:52:28;;;;;;;4.10;2.70;;;8.90;99.90;;;;;;5043235;28;20913;-44
2022/09/23 01:55:17;;;;;;;4.60;2.87;;;9.00;99.90;;;;;;5031403;28;20899;-44
2022/09/23 01:57:53;;;;;;;3.67;3.00;;;8.90;99.90;;;;;;5031096;28;20426;-44
2022/09/23 02:00:22;;;;;;;3.97;2.70;;;8.90;99.90;;;;;;5031239;28;20911;-45
2022/09/23 02:02:58;;;;;;;2.70;2.50;;;8.80;99.90;;;;;;5039437;28;20469;-47
2022/09/23 02:05:31;;;;;;;4.87;3.30;;;8.80;99.90;;;;;;5051052;28;20858;-47
2022/09/23 02:08:07;;;;;;;3.80;2.70;;;8.90;99.90;;;;;;5041173;28;20464;-48
2022/09/23 02:10:46;;;;;;;3.13;2.80;;;8.90;99.90;;;;;;5031120;28;20420;-47
2022/09/23 02:13:23;;;;;;;3.90;3.03;;;8.80;99.90;;;;;;5036395;28;20456;-47
2022/09/23 02:15:58;;;;;;;5.80;2.93;;;8.80;99.90;;;;;;5050994;28;20424;-47
2022/09/23 02:18:28;;;;;;;2.83;2.53;;;8.70;99.90;;;;;;5031104;28;20871;-47
2022/09/23 02:20:59;;;;;;;4.27;2.73;;;8.70;99.90;;;;;;5031063;28;20410;-47
2022/09/23 02:23:39;;;;;;;3.67;2.63;;;8.70;99.90;;;;;;5038122;28;20780;-47
2022/09/23 02:26:14;;;;;;;3.17;2.67;;;8.70;99.90;;;;;;5049838;28;20484;-47
2022/09/23 02:28:58;;;;;;;2.90;2.60;;;8.70;99.90;;;;;;5041385;28;20498;-48
2022/09/23 02:31:39;;;;;;;3.33;2.93;;;8.60;99.90;;;;;;5030770;28;20413;-47
2022/09/23 02:34:20;;;;;;;3.40;3.00;;;8.60;99.90;;;;;;5030232;28;20508;-47
2022/09/23 02:37:27;;;;;;;3.30;2.67;;;8.60;99.90;;;;;;5030584;28;20405;-47
2022/09/23 02:39:57;;;;;;;8.63;3.30;;;8.60;99.90;;;;;;5011065;28;20774;-47
2022/09/23 02:42:44;;;;;;;9.33;3.17;;;8.60;99.90;;;;;;5032106;28;20449;-47
2022/09/23 02:45:10;;;;;;;2.70;2.50;;;8.60;99.90;;;;;;5030724;28;20903;-47
2022/09/23 02:47:38;;;;;;;4.23;3.00;;;8.60;99.90;;;;;;5030648;28;20495;-47
2022/09/23 02:50:04;;;;;;;3.37;3.07;;;8.60;99.90;;;;;;5034475;28;20247;-47
2022/09/23 02:52:31;;;;;;;3.60;2.43;;;8.60;99.90;;;;;;5041112;28;20551;-50
2022/09/23 02:54:57;;;;;;;7.53;2.80;;;8.60;99.90;;;;;;5030398;28;20441;-47
2022/09/23 02:57:23;;;;;;;9.07;2.77;;;8.60;99.90;;;;;;5030495;28;20402;-47
2022/09/23 02:59:49;;;;;;;5.10;3.70;;;8.60;99.90;;;;;;5030331;28;20501;-47
2022/09/23 03:02:19;;;;;;;3.97;3.17;;;8.60;99.90;;;;;;5030286;28;20497;-48
2022/09/23 03:05:00;;;;;;;4.90;3.03;;;8.60;99.90;;;;;;5029919;28;20171;-48
2022/09/23 03:08:03;;;;;;;3.40;2.70;;;8.60;99.90;;;;;;5030573;28;20448;-47
2022/09/23 03:10:58;;;;;;;3.07;2.87;;;8.60;99.90;;;;;;5030379;28;20413;-48
2022/09/23 03:13:45;;;;;;;4.00;3.20;;;8.60;99.90;;;;;;5036432;28;21040;-48
2022/09/23 03:16:21;;;;;;;6.03;2.80;;;8.60;99.90;;;;;;5049106;28;20447;-47
2022/09/23 03:18:59;;;;;;;2.87;2.67;;;8.60;99.90;;;;;;5049998;28;20396;-47
2022/09/23 03:21:33;;;;;;;3.17;2.87;;;8.60;99.90;;;;;;5049910;28;21231;-47
2022/09/23 03:24:01;;;;;;;4.00;2.97;;;8.60;99.90;;;;;;5048871;28;20432;-46
2022/09/23 03:26:30;;;;;;;4.13;2.90;;;8.60;99.90;;;;;;5049835;28;20977;-47
2022/09/23 03:28:57;;;;;;;3.43;3.07;;;8.60;99.90;;;;;;5049639;28;20408;-47
2022/09/23 03:31:23;;;;;;;5.90;3.30;;;8.60;99.90;;;;;;5048619;28;20452;-48
2022/09/23 03:33:54;;;;;;;4.00;3.20;;;8.60;99.90;;;;;;5047929;28;20565;-47
2022/09/23 03:39:17;;;;;;;3.80;3.03;;;8.70;99.90;;;;;;5030908;28;20476;-47
2022/09/23 03:41:49;;;;;;;3.27;2.97;;;8.70;99.90;;;;;;5030834;28;20496;-47
2022/09/23 03:44:16;;;;;;;4.57;3.00;;;8.70;99.90;;;;;;5049928;28;20463;-47
2022/09/23 03:46:48;;;;;;;6.40;3.60;;;8.70;99.90;;;;;;5049650;28;20429;-47
2022/09/23 03:49:18;;;;;;;4.27;2.60;;;8.60;99.90;;;;;;5049850;28;20403;-47
2022/09/23 03:51:44;;;;;;;3.97;3.17;;;8.60;99.90;;;;;;5034886;28;20449;-47
2022/09/23 03:54:10;;;;;;;4.73;3.40;;;8.60;99.90;;;;;;5053375;28;20460;-47
2022/09/23 03:56:36;;;;;;;6.07;3.03;;;8.70;99.90;;;;;;5053597;28;20163;-48
2022/09/23 03:59:02;;;;;;;8.70;3.13;;;8.70;99.90;;;;;;5034810;28;20206;-47
2022/09/23 04:01:28;;;;;;;4.20;2.77;;;8.70;99.90;;;;;;5038089;28;20436;-47
2022/09/23 04:03:54;;;;;;;4.60;2.90;;;8.60;99.90;;;;;;5052889;28;20190;-47
2022/09/23 04:06:20;;;;;;;3.43;2.70;;;8.60;99.90;;;;;;5053113;28;20413;-47
2022/09/23 04:08:45;;;;;;;3.67;3.27;;;8.60;99.90;;;;;;5053399;28;20569;-47
2022/09/23 04:11:11;;;;;;;3.60;3.20;;;8.60;99.90;;;;;;5050292;28;20493;-54
2022/09/23 04:13:37;;;;;;;6.90;3.20;;;8.50;99.90;;;;;;5035499;28;20207;-47
2022/09/23 04:16:02;;;;;;;4.43;3.30;;;8.50;99.90;;;;;;5033140;28;20168;-47
2022/09/23 04:18:28;;;;;;;3.53;3.20;;;8.50;1.00;;;;;;5033164;28;20651;-47
2022/09/23 04:21:00;;;;;;;7.50;3.53;;;8.50;1.00;;;;;;5033245;28;20647;-47
2022/09/23 04:23:26;;;;;;;5.93;3.80;;;8.50;1.00;;;;;;5051781;28;20186;-47
2022/09/23 04:25:52;;;;;;;3.50;3.20;;;8.40;1.00;;;;;;5052411;28;20494;-47
2022/09/23 04:28:18;;;;;;;5.47;3.27;;;8.40;1.00;;;;;;5052827;28;20875;-47
2022/09/23 04:30:45;;;;;;;5.00;3.27;;;8.40;1.00;;;;;;5047230;28;20781;-47
2022/09/23 04:33:11;;;;;;;4.23;3.57;;;8.40;1.00;;;;;;5033940;28;21155;-47
2022/09/23 04:35:37;;;;;;;3.60;3.10;;;8.40;1.00;;;;;;5032828;28;20403;-47
2022/09/23 04:38:04;;;;;;;3.47;3.17;;;8.40;1.00;;;;;;5045448;28;20942;-47
2022/09/23 04:40:30;;;;;;;4.33;3.67;;;8.40;1.00;;;;;;5051685;28;20474;-47
2022/09/23 04:42:55;;;;;;;3.70;3.40;;;8.40;1.00;;;;;;5051593;28;20440;-47
2022/09/23 04:45:21;;;;;;;4.23;3.17;;;8.30;1.00;;;;;;5052353;28;20190;-47
2022/09/23 04:47:46;;;;;;;3.60;3.30;;;8.40;1.00;;;;;;5049370;28;20195;-47
2022/09/23 04:50:12;;;;;;;5.20;3.57;;;8.40;1.00;;;;;;5052300;28;20235;-47
2022/09/23 04:52:38;;;;;;;4.10;3.63;;;8.30;1.00;;;;;;5050314;28;20209;-47
2022/09/23 04:55:04;;;;;;;4.40;3.60;;;8.30;1.00;;;;;;5044984;28;20986;-48
2022/09/23 04:57:29;;;;;;;4.10;3.70;;;8.40;1.00;;;;;;5043402;28;20551;-47
2022/09/23 04:59:56;;;;;;;5.23;3.40;;;8.30;1.00;;;;;;5044158;28;20433;-47
2022/09/23 05:02:22;;;;;;;5.33;3.70;;;8.40;1.00;;;;;;5051595;28;20601;-48
2022/09/23 05:04:48;;;;;;;3.50;3.20;;;8.40;1.00;;;;;;5046655;28;20468;-48
2022/09/23 05:07:16;;;;;;;4.10;3.70;;;8.40;1.00;;;;;;5035748;28;20436;-47
2022/09/23 05:09:41;;;;;;;5.37;3.57;;;8.50;1.00;;;;;;5042876;28;20888;-48
2022/09/23 05:12:07;;;;;;;6.27;3.70;;;8.50;1.00;;;;;;5051858;28;20423;-47
2022/09/23 05:14:33;;;;;;;6.70;3.27;;;8.50;1.00;;;;;;5050769;28;20182;-47
2022/09/23 05:16:58;;;;;;;4.53;3.20;;;8.60;1.00;;;;;;5051912;28;20710;-47
2022/09/23 05:19:24;;;;;;;4.53;3.33;;;8.60;1.00;;;;;;5051702;28;20824;-47
2022/09/23 05:21:49;;;;;;;3.30;3.00;;;8.60;1.00;;;;;;5052369;28;20183;-47
2022/09/23 05:24:15;;;;;;;8.43;3.40;;;8.60;1.00;;;;;;5051794;28;20276;-47
2022/09/23 05:26:41;;;;;;;6.10;3.70;;;8.60;1.00;;;;;;5051621;28;20234;-48
2022/09/23 05:29:07;;;;;;;5.70;3.40;;;8.60;1.00;;;;;;5051227;28;20258;-48
2022/09/23 05:31:33;;;;;;;4.37;3.67;;;8.70;1.00;;;;;;5044150;28;20493;-47
2022/09/23 05:34:01;;;;;;;3.73;3.40;;;8.70;1.00;;;;;;5042867;28;20518;-48
2022/09/23 05:36:29;;;;;;;7.07;3.43;;;8.70;1.00;;;;;;5051823;28;20565;-47
2022/09/23 05:38:55;;;;;;;7.87;3.80;;;8.80;1.00;;;;;;5050963;28;20501;-48
2022/09/23 05:41:22;;;;;;;4.77;3.87;;;8.90;1.00;;;;;;5037560;28;20476;-48
2022/09/23 05:43:50;;;;;;;4.27;3.10;;;9.00;1.00;;;;;;5031322;28;20904;-48
2022/09/23 05:46:18;;;;;;;7.70;3.70;;;9.00;1.00;;;;;;5031461;28;20421;-48
2022/09/23 05:48:47;;;;;;;3.27;2.97;;;9.10;1.00;;;;;;5031889;28;20432;-48
2022/09/23 05:51:25;;;;;;;4.77;3.37;;;9.10;1.00;;;;;;5031817;28;20888;-47
2022/09/23 05:53:51;;;;;;;5.73;3.50;;;9.20;99.90;;;;;;5043878;28;20460;-48
2022/09/23 05:56:20;;;;;;;5.83;3.40;;;9.30;99.90;;;;;;5050167;28;20428;-52
2022/09/23 05:58:51;;;;;;;4.30;3.90;;;9.30;99.90;;;;;;5051274;28;20415;-48
2022/09/23 06:01:23;;;;;;;5.87;3.97;;;9.40;99.90;;;;;;5051554;28;20755;-48
2022/09/23 06:03:54;;;;;;;5.23;3.90;;;9.40;99.90;;;;;;5051699;28;20470;-48
2022/09/23 06:06:26;;;;;;;5.40;3.63;;;9.50;99.90;;;;;;5049262;28;20433;-47
2022/09/23 06:08:52;;;;;;;4.03;3.60;;;9.60;99.90;;;;;;5051203;28;20435;-48
2022/09/23 06:11:20;;;;;;;5.80;3.70;;;9.60;99.90;;;;;;5049709;28;20449;-47
2022/09/23 06:13:46;;;;;;;4.70;4.30;;;9.60;99.90;;;;;;5050604;28;20276;-47
2022/09/23 06:16:13;;;;;;;7.10;3.90;;;9.70;99.90;;;;;;5050483;28;20495;-48
2022/09/23 06:18:40;;;;;;;4.30;3.90;;;9.70;87.90;;;;;;5050821;28;20273;-48
2022/09/23 06:21:07;;;;;;;5.10;3.70;;;9.70;72.20;;;;;;5051184;28;20427;-48
2022/09/23 06:23:32;;;;;;;3.80;3.50;;;9.70;60.70;;;;;;5050968;28;20439;-48
2022/09/23 06:26:03;;;;;;;3.97;3.57;;;9.70;56.20;;;;;;5050352;28;20477;-44
2022/09/23 06:28:33;;;;;;;4.27;3.87;;;9.80;61.10;;;;;;5050386;28;20523;-44
2022/09/23 06:31:02;;;;;;;7.47;4.37;;;9.80;49.90;;;;;;5045362;28;20448;-44
2022/09/23 06:33:28;;;;;;;3.77;3.40;;;9.80;49.90;;;;;;5050275;28;20457;-45
2022/09/23 06:35:58;;;;;;;5.07;3.70;;;9.80;54.00;;;;;;5050762;28;20420;-44
2022/09/23 06:38:25;;;;;;;4.13;3.77;;;9.80;48.70;;;;;;5050933;28;20424;-45
2022/09/23 06:40:53;;;;;;;5.20;4.00;;;9.80;40.60;;;;;;5037692;28;20449;-45
2022/09/23 06:43:19;;;;;;;6.60;4.23;;;9.90;38.50;;;;;;5048452;28;20494;-45
2022/09/23 06:45:44;;;;;;;4.50;3.83;;;9.90;24.60;;;;;;5050535;28;20429;-45
2022/09/23 06:48:10;;;;;;;7.93;4.93;;;9.90;19.00;;;;;;5050306;28;20225;-44
2022/09/23 06:50:35;;;;;;;4.40;3.90;;;9.90;19.10;;;;;;5050572;28;20178;-44
2022/09/23 06:53:02;;;;;;;6.90;4.30;;;9.90;17.80;;;;;;5050142;28;20988;-44
2022/09/23 06:55:28;;;;;;;4.70;4.00;;;9.90;12.80;;;;;;5046880;28;20187;-44
2022/09/23 06:57:56;;;;;;;3.53;3.23;;;9.90;10.40;;;;;;5030077;28;20436;-44
2022/09/23 07:00:23;;;;;;;5.77;3.83;;;10.00;16.40;;;;;;5030525;28;20896;-44
2022/09/23 07:02:49;;;;;;;6.97;3.80;;;10.00;14.70;;;;;;5030292;28;20422;-45
2022/09/23 07:05:16;;;;;;;7.00;4.03;;;10.20;11.60;;;;;;5030455;28;20429;-45
2022/09/23 07:07:42;;;;;;;5.83;4.20;;;10.30;17.40;;;;;;5030494;28;20170;-44
2022/09/23 07:10:09;;;;;;;7.30;4.13;;;10.60;32.50;;;;;;5030643;28;20790;-44
2022/09/23 07:12:35;;;;;;;5.23;3.67;;;10.90;1.00;;;;;;5031486;28;20457;-44
2022/09/23 07:15:00;;;;;;;5.33;3.43;;;11.40;1.00;;;;;;5050129;28;20413;-44
2022/09/23 07:17:26;;;;;;;7.07;3.90;;;11.70;1.00;;;;;;5049937;28;20179;-45
2022/09/23 07:19:53;;;;;;;12.00;3.83;;;12.10;1.00;;;;;;5049841;28;20163;-45
2022/09/23 07:22:20;;;;;;;5.70;3.57;;;12.60;1.00;;;;;;5047068;28;20210;-44
2022/09/23 07:24:46;;;;;;;4.53;3.30;;;13.20;1.00;;;;;;5030310;28;20429;-45
2022/09/23 07:27:16;;;;;;;5.43;3.83;;;13.60;1.00;;;;;;5029409;28;20504;-44
2022/09/23 07:29:42;;;;;;;5.40;3.37;;;14.00;1.00;;;;;;5036053;28;20199;-45
2022/09/23 07:32:08;;;;;;;3.33;3.03;;;14.40;1.00;;;;;;5035185;28;20397;-44
2022/09/23 07:34:34;;;;;;;5.70;3.50;;;14.60;1.00;;;;;;5035146;28;20499;-45
2022/09/23 07:36:59;;;;;;;4.23;3.50;;;15.10;1.00;;;;;;5034839;28;20405;-45
2022/09/23 07:39:25;;;;;;;5.10;3.90;;;15.60;1.00;;;;;;5034824;28;20170;-45
2022/09/23 07:41:50;;;;;;;4.50;3.60;;;15.70;1.00;;;;;;5034971;28;20229;-46
2022/09/23 07:44:18;;;;;;;3.93;3.27;;;15.90;1.00;;;;;;5034241;28;20229;-45
2022/09/23 07:46:43;;;;;;;4.27;3.53;;;16.60;1.00;;;;;;5037451;28;20190;-46
2022/09/23 07:49:09;;;;;;;6.03;3.57;;;17.30;1.00;;;;;;5055015;28;20419;-46
2022/09/23 07:51:37;;;;;;;3.93;3.20;;;17.80;1.00;;;;;;5054494;28;20175;-45
2022/09/23 07:54:15;;;;;;;5.33;3.10;;;17.90;1.00;;;;;;5054320;28;20453;-45
2022/09/23 07:56:41;;;;;;;8.43;3.50;;;17.60;1.00;;;;;;5054438;28;21193;-45
2022/09/23 07:59:14;;;;;;;5.27;3.17;;;17.50;99.90;;;;;;5051050;28;20398;-46
2022/09/23 08:01:42;;;;;;;4.53;3.60;;;17.60;1.00;;;;;;5035071;28;20826;-45
2022/09/23 08:04:16;;;;;;;5.37;3.27;;;17.80;99.90;;;;;;5034448;28;20429;-45
2022/09/23 08:06:56;;;;;;;4.77;3.50;;;17.70;99.90;;;;;;5034328;28;20460;-45
2022/09/23 08:09:33;;;;;;;6.37;3.30;;;17.50;99.90;;;;;;5049594;28;21235;-45
2022/09/23 08:11:59;;;;;;;4.77;3.37;;;17.50;99.90;;;;;;5054402;28;20456;-45
2022/09/23 08:14:25;;;;;;;9.20;3.07;;;17.30;99.90;;;;;;5036545;28;20512;-46
2022/09/23 08:16:51;;;;;;;6.63;3.57;;;17.10;99.90;;;;;;5033992;28;20184;-46
2022/09/23 08:19:17;;;;;;;3.77;3.30;;;17.20;99.90;;;;;;5034551;28;20521;-45
2022/09/23 08:21:46;;;;;;;7.20;4.13;;;17.30;99.90;;;;;;5033641;28;20179;-45
2022/09/23 08:24:17;;;;;;;7.17;3.80;;;17.50;99.90;;;;;;5034372;28;20402;-45
2022/09/23 08:26:44;;;;;;;5.60;3.40;;;17.70;99.90;;;;;;5034070;28;20473;-45
2022/09/23 08:29:14;;;;;;;6.20;3.40;;;17.90;99.90;;;;;;5034468;28;20409;-45
2022/09/23 08:31:40;;;;;;;8.83;4.10;;;18.00;99.90;;;;;;5034121;28;20425;-45
2022/09/23 08:34:06;;;;;;;9.07;4.20;;;18.00;99.90;;;;;;5047790;28;20506;-46
2022/09/23 08:36:32;;;;;;;7.23;3.90;;;18.10;99.90;;;;;;5053910;28;20162;-45
2022/09/23 08:38:58;;;;;;;6.33;4.20;;;18.50;1.00;;;;;;5052538;28;20406;-45
2022/09/23 08:41:47;;;;;;;6.37;3.90;;;18.70;99.90;;;;;;5054096;28;20736;-45
2022/09/23 08:44:49;;;;;;;7.60;4.07;;;19.10;99.90;;;;;;5053227;28;20185;-48
2022/09/23 08:47:30;;;;;;;6.10;3.80;;;19.20;99.90;;;;;;5053340;28;20428;-49
2022/09/23 08:50:16;;;;;;;7.23;3.67;;;19.10;99.90;;;;;;5053185;28;20503;-49
2022/09/23 08:52:57;;;;;;;12.90;4.30;;;19.20;99.90;;;;;;5053164;28;20448;-49
2022/09/23 08:55:47;;;;;;;6.40;3.57;;;19.40;99.90;;;;;;5053302;28;20435;-49
2022/09/23 08:58:22;;;;;;;7.53;3.90;;;19.80;99.90;;;;;;5052556;28;20755;-45
2022/09/23 09:01:01;;;;;;;8.43;3.87;;;19.70;99.90;;;;;;5052283;28;20428;-45
2022/09/23 09:03:35;;;;;;;5.67;3.77;;;19.30;99.90;;;;;;5052935;28;20486;-45
2022/09/23 09:06:02;;;;;;;9.10;4.50;;;19.00;99.90;;;;;;5053258;28;20457;-45
2022/09/23 09:08:33;;;;;;;9.80;3.33;;;18.80;99.90;;;;;;5049209;28;20437;-45
2022/09/23 09:10:59;;;;;;;6.53;3.83;;;18.50;99.90;;;;;;5033090;28;20449;-45
2022/09/23 09:13:34;;;;;;;6.30;3.70;;;18.20;99.90;;;;;;5033043;28;20520;-45
2022/09/23 09:16:35;;;;;;;4.60;3.50;;;17.80;99.90;;;;;;5033176;28;20414;-54
2022/09/23 09:19:02;;;;;;;7.17;3.77;;;17.50;99.90;;;;;;5033153;28;20413;-45
2022/09/23 09:21:37;;;;;;;7.13;3.53;;;17.30;99.90;;;;;;5032979;28;20505;-45
2022/09/23 09:24:11;;;;;;;4.17;3.40;;;17.00;99.90;;;;;;5050102;28;20828;-45
2022/09/23 09:26:38;;;;;;;6.90;2.97;;;16.90;99.90;;;;;;5053096;28;20835;-45
2022/09/23 09:29:07;;;;;;;6.10;3.07;;;16.80;99.90;;;;;;5052758;28;21043;-45
2022/09/23 09:31:44;;;;;;;6.03;3.43;;;16.80;99.90;;;;;;5052218;28;20444;-45
2022/09/23 09:34:23;;;;;;;5.40;3.57;;;16.80;99.90;;;;;;5052742;28;20471;-45
2022/09/23 09:36:53;;;;;;;7.67;3.70;;;16.70;99.90;;;;;;5043755;28;20434;-45
2022/09/23 09:39:18;;;;;;;7.00;3.60;;;16.80;99.90;;;;;;5032860;28;21197;-47
2022/09/23 09:41:50;;;;;;;6.93;3.40;;;16.80;99.90;;;;;;5032484;28;20434;-45
2022/09/23 09:44:46;;;;;;;7.20;3.83;;;16.80;99.90;;;;;;5032117;28;20167;-45
2022/09/23 09:47:50;;;;;;;8.00;4.33;;;16.80;99.90;;;;;;5035191;28;20447;-45
2022/09/23 09:50:37;;;;;;;6.60;3.33;;;16.80;99.90;;;;;;5051802;28;20408;-45
2022/09/23 09:53:24;;;;;;;6.37;3.10;;;17.00;99.90;;;;;;5051115;28;20793;-45
2022/09/23 09:56:02;;;;;;;5.60;3.33;;;17.20;99.90;;;;;;5051741;28;20519;-45
2022/09/23 09:58:42;;;;;;;6.73;3.60;;;17.50;99.90;;;;;;5052061;28;20855;-45
2022/09/23 10:01:27;;;;;;;11.27;3.53;;;17.80;99.90;;;;;;5052095;28;20393;-45
2022/09/23 10:03:55;;;;;;;8.50;2.90;;;18.10;99.90;;;;;;5051813;28;20416;-45
2022/09/23 10:06:30;;;;;;;8.60;3.30;;;18.40;99.90;;;;;;5045046;28;21219;-45
2022/09/23 10:09:08;;;;;;;4.97;2.90;;;18.70;99.90;;;;;;5032549;28;20456;-45
2022/09/23 10:11:33;;;;;;;6.50;3.90;;;18.90;99.90;;;;;;5032933;28;20491;-45
2022/09/23 10:14:03;;;;;;;4.70;2.90;;;19.10;99.90;;;;;;5031820;28;20497;-45
2022/09/23 10:16:30;;;;;;;5.10;2.90;;;19.20;99.90;;;;;;5032425;28;20175;-45
2022/09/23 10:18:58;;;;;;;7.93;3.00;;;19.40;99.90;;;;;;5050419;28;20452;-45
2022/09/23 10:21:25;;;;;;;8.57;2.93;;;19.60;99.90;;;;;;5052064;28;20764;-46
2022/09/23 10:23:54;;;;;;;6.20;2.93;;;19.80;99.90;;;;;;5051713;28;20435;-46
2022/09/23 10:26:39;;;;;;;4.57;2.87;;;19.90;99.90;;;;;;5051151;28;20591;-45
2022/09/23 10:29:27;;;;;;;6.43;3.00;;;20.10;99.90;;;;;;5051132;28;20409;-46
2022/09/23 10:32:18;;;;;;;7.03;3.20;;;20.30;99.90;;;;;;5048473;28;20517;-45
2022/09/23 10:34:47;;;;;;;4.33;2.50;;;20.40;99.90;;;;;;5031306;28;20497;-45
2022/09/23 10:37:22;;;;;;;4.50;2.73;;;20.50;99.90;;;;;;5031828;28;20460;-45
2022/09/23 10:48:27;;;;;;;6.87;3.30;;;20.40;99.90;;;;;;5047066;28;20495;-46
2022/09/23 10:50:54;;;;;;;7.37;3.00;;;20.30;99.90;;;;;;5051095;28;20448;-45
2022/09/23 10:54:03;;;;;;;9.27;2.67;;;20.50;99.90;;;;;;5050729;28;20511;-45
2022/09/23 10:56:38;;;;;;;5.23;3.10;;;20.60;99.90;;;;;;5050793;28;20401;-45
2022/09/23 10:59:16;;;;;;;4.90;2.67;;;20.60;99.90;;;;;;5050809;28;20503;-46
2022/09/23 11:02:03;;;;;;;4.97;2.80;;;20.50;99.90;;;;;;5049392;28;20578;-46
2022/09/23 11:05:14;;;;;;;6.33;2.10;;;20.60;99.90;;;;;;5055150;28;20714;-45
2022/09/23 11:08:06;;;;;;;6.80;2.63;;;20.70;99.90;;;;;;5042347;28;20437;-46
2022/09/23 11:10:54;;;;;;;2.07;1.87;;;20.90;99.90;;;;;;5050818;28;20424;-46
2022/09/23 11:13:41;;;;;;;2.30;2.10;;;21.00;99.90;;;;;;5047726;28;20915;-45
2022/09/23 11:16:07;;;;;;;4.43;2.70;;;21.00;99.90;;;;;;5035320;28;20405;-45
2022/09/23 11:19:10;;;;;;;3.00;2.43;;;20.90;99.90;;;;;;5054333;28;20812;-45
2022/09/23 11:22:14;;;;;;;4.47;2.20;;;20.90;99.90;;;;;;5055208;28;20181;-46
2022/09/23 11:25:07;;;;;;;4.40;2.50;;;21.00;99.90;;;;;;5055593;28;20557;-45
2022/09/23 11:28:03;;;;;;;4.17;2.20;;;21.20;99.90;;;;;;5052195;28;20464;-45
2022/09/23 11:30:52;;;;;;;4.00;2.00;;;21.30;99.90;;;;;;5046289;28;20927;-46
2022/09/23 11:33:41;;;;;;;2.93;2.10;;;21.10;99.90;;;;;;5035544;28;20548;-48
2022/09/23 11:36:13;;;;;;;4.80;2.40;;;21.00;99.90;;;;;;5044959;28;20437;-48
2022/09/23 11:38:43;;;;;;;3.17;1.87;;;20.70;99.90;;;;;;5034620;28;20406;-49
2022/09/23 11:41:31;;;;;;;2.93;2.30;;;20.50;99.90;;;;;;5034645;28;20398;-49
2022/09/23 11:44:07;;;;;;;2.57;1.67;;;20.40;99.90;;;;;;5034450;28;20463;-49
2022/09/23 11:46:58;;;;;;;4.50;2.20;;;20.20;99.90;;;;;;5048032;28;20426;-56
2022/09/23 11:49:41;;;;;;;3.77;2.00;;;20.00;99.90;;;;;;5035421;28;20457;-48
2022/09/23 11:52:19;;;;;;;2.43;2.10;;;20.00;99.90;;;;;;5048011;28;20436;-49
2022/09/23 11:54:54;;;;;;;1.60;1.50;;;20.00;99.90;;;;;;5052257;28;20444;-49
2022/09/23 11:57:52;;;;;;;3.63;1.80;;;19.90;99.90;;;;;;5054112;28;20404;-48
2022/09/23 12:00:19;;;;;;;2.50;1.70;;;19.90;99.90;;;;;;5053222;28;20425;-49
2022/09/23 12:03:10;;;;;;;2.07;1.87;;;19.80;99.90;;;;;;5052321;28;20405;-49
2022/09/23 12:05:44;;;;;;;3.87;1.60;;;19.90;99.90;;;;;;5033376;28;20449;-49
2022/09/23 12:08:29;;;;;;;1.80;1.50;;;19.80;99.90;;;;;;5054961;28;20511;-49
2022/09/23 12:11:13;;;;;;;6.27;1.50;;;19.90;99.90;;;;;;5054741;28;20421;-49
2022/09/23 12:13:48;;;;;;;3.00;1.40;;;20.00;99.90;;;;;;5044208;28;21341;-50
2022/09/23 12:16:14;;;;;;;2.37;1.53;;;20.00;99.90;;;;;;5039327;28;20511;-49
2022/09/23 12:18:50;;;;;;;1.73;1.40;;;20.10;99.90;;;;;;5051402;28;20528;-49
2022/09/23 12:21:25;;;;;;;2.37;1.77;;;20.20;99.90;;;;;;5047737;28;20198;-49
2022/09/23 12:24:15;;;;;;;3.40;1.63;;;20.30;99.90;;;;;;5054445;28;20808;-49
2022/09/23 12:26:43;;;;;;;5.83;1.60;;;20.30;99.90;;;;;;5052200;28;20534;-49
2022/09/23 12:29:12;;;;;;;1.50;1.40;;;20.40;99.90;;;;;;5053161;28;20437;-46
2022/09/23 12:31:40;;;;;;;1.97;1.60;;;20.40;99.90;;;;;;5054745;28;20425;-45
2022/09/23 12:34:43;;;;;;;2.50;1.70;;;20.30;99.90;;;;;;5053086;28;21000;-45
2022/09/23 12:37:08;;;;;;;2.90;2.00;;;20.30;99.90;;;;;;5037536;28;20452;-45
2022/09/23 12:39:37;;;;;;;2.13;1.57;;;20.20;99.90;;;;;;5054125;28;20439;-45
2022/09/23 12:42:16;;;;;;;1.97;1.87;;;20.10;99.90;;;;;;5053652;28;20225;-45
2022/09/23 12:44:43;;;;;;;1.80;1.60;;;20.00;99.90;;;;;;5052358;28;20455;-46
2022/09/23 12:47:34;;;;;;;2.50;1.80;;;19.90;99.90;;;;;;5054098;28;20416;-45
2022/09/23 12:50:00;;;;;;;2.10;1.97;;;20.00;99.90;;;;;;5043434;28;20448;-46
2022/09/23 12:52:29;;;;;;;1.77;1.67;;;20.10;99.90;;;;;;5039065;28;20825;-46
2022/09/23 12:54:57;;;;;;;3.40;2.00;;;20.10;99.90;;;;;;5032984;28;20534;-48
2022/09/23 12:57:32;;;;;;;2.13;1.80;;;20.10;99.90;;;;;;5037940;28;20449;-48
2022/09/23 13:00:25;;;;;;;1.70;1.60;;;20.00;99.90;;;;;;5052777;28;20436;-48
2022/09/23 13:08:27;;;;;;;5.57;1.80;;;20.20;99.90;;;;;;5053402;28;20443;-48
2022/09/23 13:10:59;;;;;;;2.40;1.77;;;20.30;99.90;;;;;;5043013;28;20974;-49
2022/09/23 13:13:31;;;;;;;6.40;1.73;;;20.40;99.90;;;;;;5048193;28;20471;-49
2022/09/23 13:16:20;;;;;;;2.40;1.80;;;20.40;99.90;;;;;;5053644;28;20417;-48
2022/09/23 13:18:57;;;;;;;3.10;1.90;;;20.50;99.90;;;;;;5041725;28;20448;-49
2022/09/23 13:21:41;;;;;;;2.47;1.70;;;20.50;99.90;;;;;;5040433;28;20524;-49
2022/09/23 13:24:18;;;;;;;1.80;1.63;;;20.50;99.90;;;;;;5033680;28;20541;-48
2022/09/23 13:26:50;;;;;;;5.03;1.80;;;20.50;99.90;;;;;;5033827;28;20484;-49
2022/09/23 13:29:49;;;;;;;2.40;1.80;;;20.30;99.90;;;;;;5048939;28;20491;-49
2022/09/23 13:32:17;;;;;;;3.87;1.80;;;20.20;99.90;;;;;;5031817;28;20418;-49
2022/09/23 13:34:51;;;;;;;6.00;2.40;;;20.10;99.90;;;;;;5049306;28;20569;-49
2022/09/23 13:37:20;;;;;;;5.03;2.87;;;20.10;99.90;;;;;;5051587;28;20413;-48
2022/09/23 13:39:46;;;;;;;2.40;1.80;;;20.10;99.90;;;;;;5052389;28;20411;-51
2022/09/23 13:42:29;;;;;;;2.63;1.80;;;20.00;99.90;;;;;;5052004;28;20851;-49